Time;durP1;ratioP1;P1;durP2;ratioP2;P2;SDS_P1;SDS_P2;PMS_P1;PMS_P2;Temp;Humidity;BMP_temperature;BMP_pressure;BME280_temperature;BME280_humidity;BME280_pressure;Samples;Min_cycle;Max_cycle;Signal;HPM_P1;HPM_P2
2022/12/28 06:56:10;;;;;;;3.78;1.20;;;;;;;;;;10587493;27;20696;-82
2022/12/28 07:01:13;;;;;;;3.25;1.35;;;;;;;;;;10568177;28;20461;-82
2022/12/28 07:06:15;;;;;;;2.70;0.95;;;;;;;;;;10585763;28;20032;-82
2022/12/28 07:11:18;;;;;;;1.13;0.82;;;;;;;;;;10593966;28;20396;-81
2022/12/28 07:16:20;;;;;;;4.90;1.50;;;;;;;;;;10597351;28;20028;-81
2022/12/28 07:21:22;;;;;;;1.73;1.20;;;;;;;;;;10582571;28;20028;-79
2022/12/28 07:26:25;;;;;;;2.00;0.90;;;;;;;;;;10580729;28;20024;-79
2022/12/28 07:31:28;;;;;;;2.03;1.00;;;;;;;;;;10580428;28;20031;-79
2022/12/28 07:36:29;;;;;;;3.47;1.20;;;;;;;;;;10579093;28;20038;-78
2022/12/28 07:41:32;;;;;;;3.33;1.30;;;;;;;;;;10576786;28;20089;-78
2022/12/28 07:46:37;;;;;;;1.08;0.90;;;;;;;;;;10574927;28;20063;-79
2022/12/28 07:51:38;;;;;;;1.80;1.25;;;;;;;;;;10580898;28;20085;-78
2022/12/28 07:56:39;;;;;;;2.22;0.80;;;;;;;;;;10578659;28;20073;-80
2022/12/28 08:01:43;;;;;;;3.08;0.90;;;;;;;;;;10579452;28;20466;-80
2022/12/28 08:06:45;;;;;;;1.35;0.70;;;;;;;;;;10579118;28;20031;-79
2022/12/28 08:11:48;;;;;;;2.35;0.93;;;;;;;;;;10567307;28;20024;-80
2022/12/28 08:16:49;;;;;;;1.48;0.95;;;;;;;;;;10565977;28;20024;-80
2022/12/28 08:21:50;;;;;;;;;;;;;;;;;;10553545;28;20477;-79
2022/12/28 08:26:51;;;;;;;2.88;1.35;;;;;;;;;;10552879;28;20392;-79
2022/12/28 08:31:52;;;;;;;;;;;;;;;;;;10551249;28;20024;-78
2022/12/28 08:36:54;;;;;;;2.17;1.10;;;;;;;;;;10553952;28;19904;-78
2022/12/28 08:41:56;;;;;;;1.75;0.80;;;;;;;;;;10549732;28;20036;-78
2022/12/28 08:46:57;;;;;;;3.08;1.30;;;;;;;;;;10546050;28;20032;-78
2022/12/28 08:51:58;;;;;;;;;;;;;;;;;;10553066;28;20028;-79
2022/12/28 08:56:59;;;;;;;2.30;1.10;;;;;;;;;;10559663;28;19922;-78
2022/12/28 09:02:00;;;;;;;1.55;0.73;;;;;;;;;;10554167;28;20055;-78
2022/12/28 09:07:01;;;;;;;2.40;0.95;;;;;;;;;;10562358;28;20031;-81
2022/12/28 09:12:02;;;;;;;2.45;1.20;;;;;;;;;;10564521;28;20067;-78
2022/12/28 09:17:03;;;;;;;;;;;;;;;;;;10563901;28;20024;-79
2022/12/28 09:22:04;;;;;;;1.65;0.98;;;;;;;;;;10562282;28;20326;-78
2022/12/28 09:27:05;;;;;;;3.50;1.15;;;;;;;;;;10564903;28;20068;-78
2022/12/28 09:32:06;;;;;;;3.05;1.38;;;;;;;;;;10564861;28;20020;-79
2022/12/28 09:37:10;;;;;;;3.20;1.63;;;;;;;;;;10566712;28;20034;-80
2022/12/28 09:42:14;;;;;;;2.28;0.82;;;;;;;;;;10565056;28;20047;-80
2022/12/28 09:47:20;;;;;;;2.28;1.20;;;;;;;;;;10563844;28;20043;-80
2022/12/28 09:52:29;;;;;;;2.63;1.25;;;;;;;;;;10578350;28;20082;-80
2022/12/28 09:57:35;;;;;;;2.35;0.77;;;;;;;;;;10564600;28;20043;-80
2022/12/28 10:02:37;;;;;;;2.58;0.90;;;;;;;;;;10554994;28;20447;-79
2022/12/28 10:07:38;;;;;;;2.17;0.80;;;;;;;;;;10556807;28;20024;-79
2022/12/28 10:12:40;;;;;;;;;;;;;;;;;;10558724;28;20028;-79
2022/12/28 10:17:41;;;;;;;;;;;;;;;;;;10553523;28;19987;-80
2022/12/28 10:22:43;;;;;;;2.08;1.27;;;;;;;;;;10561199;28;19908;-80
2022/12/28 10:27:44;;;;;;;2.25;0.88;;;;;;;;;;10554848;28;20127;-81
2022/12/28 10:33:11;;;;;;;3.30;1.00;;;;;;;;;;10558094;28;20032;-80
2022/12/28 10:38:23;;;;;;;2.55;1.45;;;;;;;;;;10548856;28;20097;-80
2022/12/28 10:43:27;;;;;;;1.70;1.00;;;;;;;;;;10554218;28;20024;-80
2022/12/28 10:48:31;;;;;;;2.75;1.00;;;;;;;;;;10549725;28;20020;-81
2022/12/28 10:53:40;;;;;;;2.17;0.95;;;;;;;;;;10553462;28;20470;-79
2022/12/28 10:58:42;;;;;;;1.60;1.00;;;;;;;;;;10555748;28;20035;-81
2022/12/28 11:03:44;;;;;;;2.42;1.50;;;;;;;;;;10557894;28;20112;-81
2022/12/28 11:30:43;;;;;;;2.90;0.90;;;;;;;;;;10626653;28;20118;-88
2022/12/28 11:35:50;;;;;;;2.20;0.88;;;;;;;;;;10608181;28;20131;-87
2022/12/28 11:41:31;;;;;;;1.65;0.95;;;;;;;;;;10575054;27;20071;-87
2022/12/28 11:53:01;;;;;;;2.88;1.00;;;;;;;;;;10502895;28;20056;-89
2022/12/28 12:04:03;;;;;;;2.65;1.30;;;;;;;;;;10338255;28;20031;-88
2022/12/28 12:15:08;;;;;;;1.85;1.30;;;;;;;;;;10333943;28;20039;-89
2022/12/28 12:20:36;;;;;;;4.53;2.10;;;;;;;;;;10337982;28;20105;-89
2022/12/28 12:25:47;;;;;;;1.20;0.73;;;;;;;;;;10421607;28;20495;-88
2022/12/28 12:36:49;;;;;;;2.58;0.85;;;;;;;;;;10638759;27;20039;-89
2022/12/28 12:48:21;;;;;;;2.75;1.00;;;;;;;;;;10424568;28;20060;-85
2022/12/28 13:04:41;;;;;;;3.67;1.30;;;;;;;;;;10442084;28;20037;-85
2022/12/28 13:10:33;;;;;;;6.05;1.60;;;;;;;;;;10425915;28;20566;-87
2022/12/28 13:15:54;;;;;;;;;;;;;;;;;;10366017;28;20022;-87
2022/12/28 13:21:00;;;;;;;4.72;1.63;;;;;;;;;;10506446;28;19904;-82
2022/12/28 13:26:03;;;;;;;3.38;1.48;;;;;;;;;;10560538;28;20171;-87
2022/12/28 13:31:37;;;;;;;2.03;1.10;;;;;;;;;;10624524;27;20532;-87
2022/12/28 13:36:46;;;;;;;2.40;1.10;;;;;;;;;;10619087;27;20445;-86
2022/12/28 13:41:52;;;;;;;2.08;1.50;;;;;;;;;;10643060;27;20481;-85
2022/12/28 13:47:27;;;;;;;3.53;1.10;;;;;;;;;;10660356;27;20126;-85
2022/12/28 13:52:40;;;;;;;3.45;1.20;;;;;;;;;;10643761;27;20096;-86
2022/12/28 13:57:50;;;;;;;1.67;1.08;;;;;;;;;;10627641;27;20032;-86
2022/12/28 14:03:07;;;;;;;2.45;1.55;;;;;;;;;;10624291;27;20058;-86
2022/12/28 14:08:32;;;;;;;3.28;1.40;;;;;;;;;;10628436;27;20035;-87
2022/12/28 14:14:07;;;;;;;2.95;1.13;;;;;;;;;;10593233;27;20113;-87
2022/12/28 14:19:33;;;;;;;1.85;1.35;;;;;;;;;;10631243;27;20100;-86
2022/12/28 14:24:34;;;;;;;2.55;1.25;;;;;;;;;;10616052;27;20079;-87
2022/12/28 14:29:47;;;;;;;4.30;2.90;;;;;;;;;;10619406;27;20031;-87
2022/12/28 14:35:00;;;;;;;3.25;1.17;;;;;;;;;;10617491;27;20460;-87
2022/12/28 14:40:09;;;;;;;2.35;1.15;;;;;;;;;;10645696;27;20031;-86
2022/12/28 14:45:32;;;;;;;2.45;1.00;;;;;;;;;;10618485;27;20149;-86
2022/12/28 14:50:37;;;;;;;3.50;1.30;;;;;;;;;;10616528;27;20410;-87
2022/12/28 14:56:04;;;;;;;2.28;1.15;;;;;;;;;;10622230;28;20047;-85
2022/12/28 15:01:08;;;;;;;1.83;0.90;;;;;;;;;;10619729;28;20447;-85
2022/12/28 15:06:09;;;;;;;3.03;1.33;;;;;;;;;;10617955;28;20110;-86
2022/12/28 15:11:14;;;;;;;2.95;1.38;;;;;;;;;;10603501;28;20049;-85
2022/12/28 15:16:34;;;;;;;3.90;1.63;;;;;;;;;;10624317;27;20023;-85
2022/12/28 15:21:41;;;;;;;3.97;1.20;;;;;;;;;;10624243;27;20145;-85
2022/12/28 15:26:42;;;;;;;2.08;1.30;;;;;;;;;;10625519;27;20027;-86
2022/12/28 15:31:45;;;;;;;3.05;1.20;;;;;;;;;;10625128;27;20063;-86
2022/12/28 15:36:46;;;;;;;2.22;1.00;;;;;;;;;;10625578;27;20087;-85
2022/12/28 15:41:47;;;;;;;2.65;1.30;;;;;;;;;;10622654;27;20038;-87
2022/12/28 15:46:51;;;;;;;3.33;1.10;;;;;;;;;;10624023;27;20031;-86
2022/12/28 15:52:01;;;;;;;3.33;1.35;;;;;;;;;;10624245;27;20034;-87
2022/12/28 15:57:03;;;;;;;3.20;1.30;;;;;;;;;;10644884;27;20062;-85
2022/12/28 16:02:04;;;;;;;3.30;1.30;;;;;;;;;;10625890;27;20037;-85
2022/12/28 16:07:05;;;;;;;2.85;1.50;;;;;;;;;;10624973;27;20126;-86
2022/12/28 16:12:06;;;;;;;4.13;1.98;;;;;;;;;;10643031;27;20537;-86
2022/12/28 16:17:07;;;;;;;;;;;;;;;;;;10628883;27;20043;-85
2022/12/28 16:22:08;;;;;;;3.03;1.17;;;;;;;;;;10625264;27;20261;-86
2022/12/28 16:27:10;;;;;;;3.47;1.50;;;;;;;;;;10626925;27;20103;-86
2022/12/28 16:32:12;;;;;;;1.90;1.40;;;;;;;;;;10624155;27;20039;-86
2022/12/28 16:37:14;;;;;;;3.08;1.10;;;;;;;;;;10621506;27;20042;-86
2022/12/28 16:42:15;;;;;;;4.47;1.30;;;;;;;;;;10621306;27;20440;-85
2022/12/28 16:47:16;;;;;;;2.13;1.10;;;;;;;;;;10637994;27;20106;-85
2022/12/28 16:52:17;;;;;;;3.75;1.95;;;;;;;;;;10618093;27;20411;-88
2022/12/28 16:57:18;;;;;;;;;;;;;;;;;;10622986;27;20081;-84
2022/12/28 17:02:20;;;;;;;1.85;1.10;;;;;;;;;;10622834;27;19952;-84
2022/12/28 17:07:21;;;;;;;1.70;1.10;;;;;;;;;;10628966;22;20503;-80
2022/12/28 17:12:22;;;;;;;2.25;1.17;;;;;;;;;;10573805;28;20095;-80
2022/12/28 17:17:23;;;;;;;1.48;0.90;;;;;;;;;;10616190;27;20054;-80
2022/12/28 17:22:24;;;;;;;2.00;1.10;;;;;;;;;;10617357;27;20122;-80
2022/12/28 17:27:25;;;;;;;4.10;1.58;;;;;;;;;;10613418;27;20035;-80
2022/12/28 17:32:27;;;;;;;3.30;1.58;;;;;;;;;;10613033;27;20046;-80
2022/12/28 17:37:28;;;;;;;3.25;1.35;;;;;;;;;;10630615;27;20035;-80
2022/12/28 17:42:28;;;;;;;3.38;1.40;;;;;;;;;;10612978;27;20143;-80
2022/12/28 17:47:30;;;;;;;3.45;1.33;;;;;;;;;;10613097;27;20094;-79
2022/12/28 17:52:31;;;;;;;3.25;1.70;;;;;;;;;;10612568;27;20031;-79
2022/12/28 17:57:32;;;;;;;3.05;1.40;;;;;;;;;;10613186;27;20122;-80
2022/12/28 18:02:33;;;;;;;3.67;1.33;;;;;;;;;;10612799;27;20129;-80
2022/12/28 18:07:34;;;;;;;2.72;1.40;;;;;;;;;;10616331;27;20076;-81
2022/12/28 18:12:35;;;;;;;2.60;1.40;;;;;;;;;;10636310;27;20548;-82
2022/12/28 18:17:36;;;;;;;2.22;1.25;;;;;;;;;;10620159;27;20030;-79
2022/12/28 18:22:37;;;;;;;3.45;1.23;;;;;;;;;;10622187;27;20070;-79
2022/12/28 18:27:38;;;;;;;;;;;;;;;;;;10623303;27;20027;-81
2022/12/28 18:32:39;;;;;;;3.50;1.83;;;;;;;;;;10635765;27;19907;-81
2022/12/28 18:37:40;;;;;;;3.22;1.40;;;;;;;;;;10610999;27;20034;-80
2022/12/28 18:42:41;;;;;;;2.03;1.50;;;;;;;;;;10609870;27;20089;-80
2022/12/28 18:47:42;;;;;;;2.50;1.25;;;;;;;;;;10628741;27;20064;-80
2022/12/28 18:52:43;;;;;;;3.45;1.67;;;;;;;;;;10612466;27;20121;-80
2022/12/28 18:57:44;;;;;;;3.97;2.88;;;;;;;;;;10612986;28;20111;-81
2022/12/28 19:02:50;;;;;;;5.05;2.63;;;;;;;;;;10612038;28;20063;-79
2022/12/28 19:07:51;;;;;;;2.38;1.40;;;;;;;;;;10610636;28;20035;-79
2022/12/28 19:12:52;;;;;;;2.70;1.30;;;;;;;;;;10612763;28;20434;-80
2022/12/28 19:17:53;;;;;;;2.40;1.30;;;;;;;;;;10613455;28;20031;-80
2022/12/28 19:22:54;;;;;;;2.30;1.33;;;;;;;;;;10611214;28;20555;-80
2022/12/28 19:27:55;;;;;;;3.03;1.30;;;;;;;;;;10611632;28;20073;-80
2022/12/28 19:32:56;;;;;;;;;;;;;;;;;;10612685;28;20031;-80
2022/12/28 19:37:57;;;;;;;2.15;1.35;;;;;;;;;;10613515;28;19994;-79
2022/12/28 19:42:58;;;;;;;2.70;1.27;;;;;;;;;;10617520;28;20035;-80
2022/12/28 19:47:59;;;;;;;2.10;1.40;;;;;;;;;;10612908;28;20036;-80
2022/12/28 19:53:01;;;;;;;2.35;1.40;;;;;;;;;;10612004;28;20023;-79
2022/12/28 19:58:02;;;;;;;2.05;1.30;;;;;;;;;;10610661;28;20066;-81
2022/12/28 20:03:03;;;;;;;2.35;1.40;;;;;;;;;;10617479;27;20035;-81
2022/12/28 20:08:04;;;;;;;2.15;1.10;;;;;;;;;;10618627;27;20039;-80
2022/12/28 20:13:05;;;;;;;;;;;;;;;;;;10618499;27;20035;-81
2022/12/28 20:18:06;;;;;;;1.30;0.85;;;;;;;;;;10618816;27;19903;-79
